KUIN/UIN METAR and TAF weather

Enter ICAO airport designator
Station Type Date Time Source
KUIN METAR 2022/12/10 01:54 UTC NOAA

KUIN 100154Z AUTO 23004KT 8SM OVC013 04/02 A3017 RMK AO2 SLP220 T00390022


Station Type Date Time Source
KUIN Decoded METAR 2022/12/10 01:54 UTC NOAA

QUINCY MUNI. BALDWIN FIELD, IL, United States (KUIN) 39-56N 091-12W
Dec 09, 2022 - 08:54 PM EST / 2022.12.10 0154 UTC
Wind: from the SW (230 degrees) at 5 MPH (4 KT):0
Visibility: 8 mile(s):0
Sky conditions: overcast
Temperature: 39.0 F (3.9 C)
Dew Point: 36.0 F (2.2 C)
Relative Humidity: 88%
Pressure (altimeter): 30.17 in. Hg (1021 hPa)
ob: KUIN 100154Z AUTO 23004KT 8SM OVC013 04/02 A3017 RMK AO2 SLP220 T00390022
cycle: 2

Station Type Date Time Source
KUIN TAF 2022/12/09 18:39 UTC NOAA

TAF KUIN 091736Z 0918/1018 27012KT P6SM OVC010

Example: see airport list